ADDS METAR Data INFO
IDs: Format: Raw Decoded Include TAF

Data at: 0607 UTC 25 Jun 2018

PACM 250556Z AUTO 25006KT 10SM SCT080 11/08 A2997 RMK AO2 RAE00 SLP144 P0000 60002 T01110083 10122 20100 57007
PACM 250456Z AUTO 24010KT 10SM -RA SCT045 BKN055 OVC065 10/08 A2998 RMK AO2 RAB14 SLP148 P0002 T01000083
PACM 250356Z AUTO 25011KT 10SM BKN060 OVC080 11/08 A2998 RMK AO2 RAB03E30 SLP148 P0000 T01060078
PACM 250256Z AUTO 24010KT 10SM FEW038 BKN048 OVC075 12/08 A2999 RMK AO2 SLP152 60000 T01170083 58012
PACM 250156Z AUTO 26010KT 10SM FEW039 OVC070 12/08 A3000 RMK AO2 RAE02B20E42 SLP156 P0000 T01170083
PACM 250056Z AUTO 24010KT 10SM -RA FEW041 BKN050 OVC070 11/08 A3002 RMK AO2 RAB32 SLP162 P0000 T01110078
PACM 242356Z AUTO 26007KT 10SM FEW037 OVC060 11/07 A3002 RMK AO2 SLP163 T01110072 10133 20100 56009
PACM 242256Z AUTO 13009KT 10SM BKN065 OVC075 13/05 A3003 RMK AO2 SLP165 T01280050
PACM 242156Z AUTO 10004KT 10SM FEW030 BKN036 OVC080 12/06 A3004 RMK AO2 SLP168 T01220056
PACM 242056Z AUTO 00000KT 10SM FEW029 SCT060 OVC080 12/06 A3005 RMK AO2 SLP172 T01170056 56007
PACM 241956Z AUTO 16008KT 10SM OVC075 12/06 A3006 RMK AO2 SLP173 T01170056
PACM 241856Z AUTO 16008KT 10SM OVC070 11/07 A3006 RMK AO2 SLP176 T01110067
PACM 241756Z AUTO 14005KT 10SM OVC070 10/07 A3007 RMK AO2 SLP179 T01000067 10100 20072 55006
PACM 241656Z AUTO 05003KT 10SM OVC070 09/07 A3007 RMK AO2 SLP178 T00940067
PACM 241556Z AUTO 09004KT 10SM OVC070 09/06 A3007 RMK AO2 SLP179 T00890061
PACM 241456Z AUTO 10006KT 10SM OVC065 08/06 A3009 RMK AO2 SLP184 T00780056 58009
PACM 241356Z AUTO 00000KT 10SM OVC070 08/05 A3010 RMK AO2 SLP188 T00780050
PACM 241256Z AUTO 00000KT 10SM OVC070 08/06 A3011 RMK AO2 SLP191 T00780056
PACM 241156Z AUTO 17003KT 10SM BKN043 OVC065 08/05 A3011 RMK AO2 SLP194 60001 70001 T00780050 10089 20078 58002
PACM 241056Z AUTO 00000KT 10SM OVC047 08/06 A3012 RMK AO2 RAB21E56 SLP194 P0000 T00830061
PACM 240956Z AUTO 00000KT 10SM OVC045 08/06 A3012 RMK AO2 RAB03E19 SLP196 P0000 T00830061
PACM 240856Z AUTO 00000KT 10SM BKN045 OVC055 08/07 A3012 RMK AO2 SLP196 60001 T00830067 401170078 55004
PACM 240756Z AUTO 00000KT 10SM FEW042 OVC055 09/06 A3012 RMK AO2 SLP195 T00890061
PACM 240656Z AUTO 00000KT 10SM OVC040 09/07 A3013 RMK AO2 RAE30 SLP197 P0001 T00890067
PACM 240620Z AUTO 30005KT 10SM -RA FEW026 BKN043 OVC060 09/07 A3013 RMK AO2 P0001
PACM 240556Z AUTO 24004KT 5SM -RA BR FEW018 BKN026 OVC034 09/07 A3013 RMK AO2 RAB24 SLP200 P0000 60000 T00890067 10117 20089 55001
PACM 240548Z AUTO 23005KT 7SM -RA BKN028 OVC034 09/07 A3013 RMK AO2 RAB24 P0000
PACM 240456Z AUTO 28005KT 10SM SCT032 OVC048 11/06 A3013 RMK AO2 SLP198 T01060061
PACM 240356Z AUTO 12004KT 10SM OVC048 11/05 A3013 RMK AO2 SLP199 T01110050
PACM 240256Z AUTO 21006KT 10SM BKN034 OVC046 11/05 A3014 RMK AO2 SLP201 T01110050 58002
PACM 240156Z AUTO 12007KT 10SM FEW031 OVC046 12/04 A3014 RMK AO2 SLP202 T01170044
PACM 240056Z AUTO 11004KT 10SM SCT033 OVC042 11/04 A3015 RMK AO2 SLP204 T01110044
PACM 232356Z AUTO 15005KT 10SM BKN035 OVC043 11/04 A3014 RMK AO2 SLP203 60000 T01110044 10111 20083 58001
PACM 232256Z AUTO 16007KT 10SM SCT029 OVC045 11/04 A3015 RMK AO2 SLP204 T01060044
PACM 232207Z AUTO 17009KT 10SM FEW022 BKN030 OVC039 10/05 A3015 RMK AO2
PACM 232156Z AUTO 16008KT 10SM FEW022 BKN028 OVC040 09/05 A3015 RMK AO2 SLP205 T00940050
PACM 232153Z AUTO 18009KT 10SM SCT024 BKN031 OVC042 09/05 A3015 RMK AO2
PACM 232129Z AUTO 16008KT 10SM BKN029 OVC047 10/05 A3015 RMK AO2
PACM 232107Z AUTO VRB06KT 10SM SCT023 OVC045 11/05 A3014 RMK AO2
PACM 232056Z AUTO 18011G14KT 10SM FEW014 BKN028 OVC045 10/06 A3014 RMK AO2 RAB21E42 SLP203 P0000 60000 T01000056 53002
PACM 232027Z AUTO 15006KT 5SM -RA BR BKN014 BKN018 OVC023 08/07 A3015 RMK AO2 RAB21 P0000
PACM 231956Z AUTO 14007KT 100V170 10SM SCT022 BKN026 OVC047 09/06 A3014 RMK AO2 SLP202 T00940056
PACM 231935Z AUTO VRB06KT 10SM FEW019 SCT032 OVC047 09/05 A3014 RMK AO2
PACM 231856Z AUTO 15005KT 10SM SCT017 BKN026 OVC050 09/06 A3014 RMK AO2 RAB14E28 SLP201 P0000 T00890056
PACM 231833Z AUTO 15008KT 10SM FEW017 BKN031 OVC050 08/06 A3013 RMK AO2 RAB14E28 P0000
PACM 231809Z AUTO 14007KT 9SM FEW012 BKN025 OVC031 08/06 A3013 RMK AO2